Time;durP1;ratioP1;P1;durP2;ratioP2;P2;SDS_P1;SDS_P2;PMS_P1;PMS_P2;Temp;Humidity;BMP_temperature;BMP_pressure;BME280_temperature;BME280_humidity;BME280_pressure;Samples;Min_cycle;Max_cycle;Signal;HPM_P1;HPM_P2
2022/01/25 00:26:38;;;;;;;62.45;32.75;;;0.90;79.40;;;;;;5051789;28;20045;-84
2022/01/25 00:29:13;;;;;;;61.55;32.75;;;0.90;79.40;;;;;;5052153;28;20075;-84
2022/01/25 00:31:41;;;;;;;75.63;34.17;;;0.90;79.40;;;;;;5052188;28;20545;-85
2022/01/25 00:34:08;;;;;;;71.47;34.25;;;0.90;79.40;;;;;;5050547;28;20045;-85
2022/01/25 00:36:36;;;;;;;72.40;34.10;;;0.90;79.40;;;;;;5051960;28;20053;-84
2022/01/25 00:39:04;;;;;;;68.68;33.90;;;0.90;79.40;;;;;;5035508;28;20044;-85
2022/01/25 00:41:32;;;;;;;65.75;33.15;;;0.90;79.40;;;;;;5051474;28;20049;-85
2022/01/25 00:44:01;;;;;;;58.60;32.10;;;0.90;79.40;;;;;;5052067;28;20049;-85
2022/01/25 00:46:29;;;;;;;70.50;33.70;;;0.80;79.40;;;;;;5051835;28;20053;-84
2022/01/25 00:49:01;;;;;;;63.63;34.50;;;0.80;79.40;;;;;;5051914;28;20059;-84
2022/01/25 00:54:09;;;;;;;62.90;34.63;;;0.80;79.40;;;;;;5051519;28;20087;-85
2022/01/25 00:56:44;;;;;;;62.83;35.58;;;0.80;79.40;;;;;;5052223;28;20051;-85
2022/01/25 00:59:20;;;;;;;62.65;33.20;;;0.80;79.40;;;;;;5052152;28;20438;-85
2022/01/25 01:01:50;;;;;;;61.80;33.95;;;0.70;79.40;;;;;;5052308;28;20052;-84
2022/01/25 01:04:18;;;;;;;64.95;35.85;;;0.70;79.40;;;;;;5054241;28;20472;-84
2022/01/25 01:06:47;;;;;;;64.25;34.75;;;0.70;79.40;;;;;;5051899;28;20064;-85
2022/01/25 01:09:16;;;;;;;65.47;36.03;;;0.70;79.50;;;;;;5051705;28;20075;-85
2022/01/25 01:33:59;;;;;;;66.97;34.33;;;0.60;79.70;;;;;;5051599;28;20084;-85
2022/01/25 01:41:49;;;;;;;67.18;37.63;;;0.60;79.70;;;;;;5051500;28;20055;-85
2022/01/25 01:45:04;;;;;;;60.70;34.20;;;0.60;79.70;;;;;;5038365;28;20051;-84
2022/01/25 01:47:47;;;;;;;65.93;36.95;;;0.60;79.70;;;;;;5039737;28;20051;-85
2022/01/25 01:50:26;;;;;;;69.97;38.40;;;0.60;79.70;;;;;;5038061;28;20154;-84
2022/01/25 01:52:54;;;;;;;68.15;39.05;;;0.60;79.70;;;;;;5050851;28;20055;-85
2022/01/25 01:55:22;;;;;;;67.50;37.08;;;0.60;79.70;;;;;;5053268;28;20132;-84
2022/01/25 01:57:49;;;;;;;67.78;35.83;;;0.60;79.70;;;;;;5050927;28;20045;-84
2022/01/25 02:00:18;;;;;;;65.63;36.63;;;0.60;79.70;;;;;;5050923;28;20053;-85
2022/01/25 02:02:45;;;;;;;68.10;37.50;;;0.50;79.70;;;;;;5050948;28;20231;-85
2022/01/25 02:05:13;;;;;;;65.18;37.50;;;0.50;79.70;;;;;;5048234;28;20045;-84
2022/01/25 02:07:40;;;;;;;65.50;38.70;;;0.50;79.70;;;;;;5050697;28;20051;-84
2022/01/25 02:10:08;;;;;;;64.55;36.47;;;0.50;79.70;;;;;;5050742;28;20132;-85
2022/01/25 02:12:35;;;;;;;71.00;39.47;;;0.50;79.70;;;;;;5050788;28;20053;-85
2022/01/25 02:15:04;;;;;;;71.72;38.63;;;0.50;79.70;;;;;;5050850;28;20040;-85
2022/01/25 02:23:18;;;;;;;64.68;36.25;;;0.50;79.70;;;;;;5069352;28;20073;-93
2022/01/25 02:25:51;;;;;;;68.10;38.65;;;0.50;79.70;;;;;;5071817;28;20116;-93
2022/01/25 02:28:36;;;;;;;61.00;36.90;;;0.40;79.60;;;;;;5072472;28;20057;-94
2022/01/25 02:31:21;;;;;;;70.72;37.92;;;0.40;79.60;;;;;;5059342;28;20116;-93
2022/01/25 02:34:46;;;;;;;63.17;37.55;;;0.40;79.60;;;;;;5074336;28;20059;-95
2022/01/25 02:38:03;;;;;;;67.10;36.88;;;0.40;79.60;;;;;;5074705;28;20036;-95
2022/01/25 02:40:35;;;;;;;71.30;38.63;;;0.40;79.70;;;;;;5072809;28;20060;-94
2022/01/25 02:43:35;;;;;;;67.95;38.15;;;0.40;79.60;;;;;;5060587;28;20048;-94
2022/01/25 02:48:29;;;;;;;65.90;37.75;;;0.40;79.60;;;;;;5075852;28;20075;-94
2022/01/25 02:49:31;;;;;;;68.28;37.42;;;0.40;79.60;;;;;;5074865;28;20076;-95
2022/01/25 02:52:41;;;;;;;70.85;38.30;;;0.30;79.70;;;;;;5076496;28;20024;-94
2022/01/25 02:59:08;;;;;;;66.10;38.40;;;0.30;79.70;;;;;;5137320;23;20066;-92
2022/01/25 03:01:38;;;;;;;66.68;37.42;;;0.30;79.70;;;;;;4995141;28;20055;-93
2022/01/25 03:04:07;;;;;;;66.22;39.22;;;0.30;79.70;;;;;;4996854;28;20030;-94
2022/01/25 03:06:35;;;;;;;66.95;37.75;;;0.30;79.70;;;;;;4997817;28;20050;-92
2022/01/25 03:09:05;;;;;;;69.70;38.88;;;0.30;79.70;;;;;;4997497;28;20050;-94
2022/01/25 03:11:32;;;;;;;64.50;38.13;;;0.30;79.70;;;;;;4996833;28;20062;-94
2022/01/25 03:14:03;;;;;;;66.55;38.45;;;0.30;79.70;;;;;;4998780;28;20050;-93
2022/01/25 03:16:39;;;;;;;71.35;39.08;;;0.30;79.80;;;;;;5030755;28;20055;-92
2022/01/25 03:21:57;;;;;;;74.25;39.05;;;0.20;79.80;;;;;;5002931;28;20062;-93
2022/01/25 03:24:25;;;;;;;67.75;38.75;;;0.20;79.80;;;;;;5002956;28;20069;-94
2022/01/25 03:56:27;;;;;;;69.57;39.72;;;0.10;79.80;;;;;;5152301;23;20081;-93
2022/01/25 03:58:55;;;;;;;73.72;40.17;;;0.10;79.80;;;;;;5020172;28;20078;-93
2022/01/25 04:01:23;;;;;;;73.18;40.45;;;0.10;79.80;;;;;;5019746;28;20051;-93
2022/01/25 04:04:03;;;;;;;74.80;40.45;;;0.10;79.80;;;;;;5019666;28;20057;-92
2022/01/25 04:06:33;;;;;;;72.45;39.35;;;0.10;79.80;;;;;;5018686;28;20102;-91
2022/01/25 04:09:02;;;;;;;75.53;39.88;;;0.10;79.80;;;;;;5031524;28;20069;-93
2022/01/25 04:11:30;;;;;;;72.07;40.83;;;0.10;79.80;;;;;;5030584;28;20085;-94
2022/01/25 04:13:58;;;;;;;68.90;38.75;;;0.00;79.80;;;;;;5018397;28;20038;-93
2022/01/25 04:16:34;;;;;;;73.45;40.72;;;0.00;79.80;;;;;;5018315;28;20110;-93
2022/01/25 04:26:43;;;;;;;70.68;39.45;;;0.00;79.80;;;;;;5035669;28;20076;-93
2022/01/25 04:29:11;;;;;;;77.47;41.33;;;0.00;79.80;;;;;;5034976;28;20061;-91
2022/01/25 04:31:38;;;;;;;78.40;41.28;;;0.00;79.80;;;;;;5035184;28;20050;-94
2022/01/25 04:54:52;;;;;;;76.35;41.38;;;0.00;79.90;;;;;;4900815;29;20049;-93
2022/01/25 04:57:48;;;;;;;84.68;42.55;;;0.00;79.90;;;;;;4858693;29;20062;-94
2022/01/25 05:00:25;;;;;;;82.45;42.13;;;0.00;79.90;;;;;;4877365;29;20085;-94
2022/01/25 05:03:12;;;;;;;74.82;42.08;;;0.00;79.90;;;;;;4882832;29;20045;-94
2022/01/25 05:06:06;;;;;;;73.07;41.15;;;-3276.70;79.90;;;;;;4880080;29;20136;-94
2022/01/25 05:08:53;;;;;;;76.90;41.80;;;0.00;79.90;;;;;;4880000;29;20060;-93
2022/01/25 05:11:35;;;;;;;76.93;42.45;;;-3276.70;79.90;;;;;;4881255;29;20049;-94
2022/01/25 05:14:30;;;;;;;80.10;41.20;;;-3276.70;79.90;;;;;;4882008;29;20053;-93
2022/01/25 05:17:18;;;;;;;80.45;42.65;;;-3276.70;79.90;;;;;;4908917;29;20060;-94
2022/01/25 05:22:55;;;;;;;73.72;40.47;;;-3276.70;79.90;;;;;;4918048;29;20059;-92
2022/01/25 05:25:34;;;;;;;76.80;40.85;;;-3276.70;79.90;;;;;;4921138;29;20121;-92
2022/01/25 05:28:08;;;;;;;76.65;42.08;;;-3276.70;79.90;;;;;;4953401;29;20129;-94
2022/01/25 05:30:52;;;;;;;76.95;41.10;;;-3276.60;79.90;;;;;;4989898;28;20051;-93
2022/01/25 05:33:23;;;;;;;82.30;40.63;;;-3276.60;79.80;;;;;;4992862;28;20062;-93
2022/01/25 05:35:57;;;;;;;78.75;40.78;;;-3276.60;79.90;;;;;;4993708;28;20113;-92
2022/01/25 05:38:27;;;;;;;79.57;41.25;;;-3276.60;79.90;;;;;;4991887;28;20055;-93
2022/01/25 05:40:59;;;;;;;79.28;41.40;;;-3276.60;79.80;;;;;;4988928;28;20082;-93
2022/01/25 05:46:17;;;;;;;72.85;40.28;;;-3276.60;79.80;;;;;;4950002;29;20084;-93
2022/01/25 05:48:48;;;;;;;77.40;42.00;;;-3276.60;79.80;;;;;;4957515;29;20059;-93
2022/01/25 05:51:15;;;;;;;77.43;41.65;;;-3276.60;79.80;;;;;;4954785;29;20058;-93
2022/01/25 05:53:46;;;;;;;82.20;42.20;;;-3276.50;79.80;;;;;;4967677;29;20079;-93
2022/01/25 05:56:16;;;;;;;81.95;41.65;;;-3276.50;79.80;;;;;;4963441;28;20055;-93
2022/01/25 05:58:46;;;;;;;83.05;41.25;;;-3276.60;79.80;;;;;;4976076;28;20054;-93
2022/01/25 06:01:15;;;;;;;72.22;40.55;;;-3276.50;79.80;;;;;;5004666;28;20050;-94
2022/01/25 06:03:45;;;;;;;70.72;40.67;;;-3276.50;79.80;;;;;;5003205;28;20055;-93
2022/01/25 06:06:13;;;;;;;71.50;40.33;;;-3276.50;79.80;;;;;;5001947;28;20391;-93
2022/01/25 06:08:40;;;;;;;84.07;41.70;;;-3276.50;79.80;;;;;;5011483;28;20049;-94
2022/01/25 06:11:09;;;;;;;81.40;42.50;;;-3276.50;79.80;;;;;;5023497;28;20063;-93
2022/01/25 06:13:37;;;;;;;77.80;42.33;;;-3276.50;79.80;;;;;;5007078;28;20054;-92
2022/01/25 06:16:06;;;;;;;73.85;39.60;;;-3276.50;79.80;;;;;;5006378;28;20046;-93
2022/01/25 06:18:35;;;;;;;85.45;43.80;;;-3276.50;79.80;;;;;;5023720;28;20121;-94
2022/01/25 06:21:05;;;;;;;90.85;45.95;;;-3276.50;79.80;;;;;;5026090;28;20057;-94
2022/01/25 06:23:36;;;;;;;93.78;44.05;;;-3276.40;79.80;;;;;;5024285;28;20105;-93
2022/01/25 06:26:09;;;;;;;95.10;44.75;;;-3276.50;79.80;;;;;;5011660;28;20065;-92
2022/01/25 06:28:43;;;;;;;;;;;-3276.50;79.80;;;;;;4997542;28;20034;-93
2022/01/25 06:33:52;;;;;;;98.70;43.88;;;-3276.40;79.90;;;;;;5220068;23;20045;-93
2022/01/25 06:36:19;;;;;;;106.07;46.50;;;-3276.50;79.90;;;;;;5017287;28;20054;-94
2022/01/25 06:38:46;;;;;;;106.18;47.22;;;-3276.40;79.90;;;;;;5017634;28;20495;-91
2022/01/25 06:41:16;;;;;;;94.82;45.35;;;-3276.40;80.00;;;;;;5017084;28;20057;-90
2022/01/25 06:43:44;;;;;;;107.38;47.55;;;-3276.40;80.00;;;;;;5016993;28;20058;-93
2022/01/25 06:46:12;;;;;;;99.82;46.83;;;-3276.40;80.00;;;;;;5014950;28;20062;-92
2022/01/25 06:48:39;;;;;;;113.50;49.03;;;-3276.40;80.00;;;;;;5012290;28;20050;-93
2022/01/25 06:51:06;;;;;;;109.88;48.90;;;-3276.40;80.10;;;;;;5013921;28;20038;-93
2022/01/25 06:53:34;;;;;;;99.68;47.63;;;-3276.40;80.10;;;;;;5013629;28;20038;-92
2022/01/25 06:56:04;;;;;;;109.15;48.67;;;-3276.40;80.10;;;;;;5015603;28;20432;-92
2022/01/25 06:58:45;;;;;;;104.93;47.00;;;-3276.40;80.10;;;;;;5235805;23;20061;-95
2022/01/25 07:06:31;;;;;;;114.82;53.60;;;-3276.40;80.30;;;;;;5413809;23;20061;-86
2022/01/25 07:09:00;;;;;;;132.15;57.35;;;-3276.40;80.30;;;;;;5018138;28;20050;-93
2022/01/25 07:11:29;;;;;;;121.93;56.15;;;-3276.50;80.30;;;;;;5012833;28;20085;-95
2022/01/25 07:13:56;;;;;;;122.13;55.08;;;-3276.50;80.40;;;;;;5012242;28;20090;-93
2022/01/25 07:16:25;;;;;;;116.00;52.20;;;-3276.50;80.40;;;;;;5010678;28;20050;-94
2022/01/25 07:18:53;;;;;;;119.80;53.55;;;-3276.50;80.50;;;;;;5011006;28;20058;-93
2022/01/25 07:21:20;;;;;;;132.85;54.47;;;-3276.50;80.50;;;;;;5009492;28;20050;-93
2022/01/25 07:23:47;;;;;;;123.97;53.35;;;-3276.50;80.50;;;;;;5013836;28;20054;-93
2022/01/25 07:26:15;;;;;;;115.07;52.25;;;-3276.60;80.50;;;;;;5014793;28;20070;-93
2022/01/25 07:28:43;;;;;;;125.32;53.22;;;-3276.60;80.60;;;;;;5010559;28;20054;-94
2022/01/25 07:31:10;;;;;;;112.78;52.28;;;-3276.60;80.60;;;;;;5010916;28;20462;-93
2022/01/25 07:33:49;;;;;;;124.40;53.42;;;-3276.60;80.60;;;;;;5004604;28;20046;-93
2022/01/25 07:36:21;;;;;;;132.25;54.85;;;-3276.60;80.70;;;;;;5009403;28;20122;-94
2022/01/25 07:38:49;;;;;;;124.78;54.03;;;-3276.60;80.70;;;;;;5013986;28;20511;-92
2022/01/25 07:41:24;;;;;;;134.52;54.42;;;-3276.60;80.70;;;;;;5008213;28;20077;-94
2022/01/25 07:43:51;;;;;;;119.60;54.20;;;-3276.60;80.80;;;;;;5013050;28;20046;-94
2022/01/25 07:46:22;;;;;;;122.40;54.50;;;-3276.70;80.80;;;;;;5012478;28;20050;-93
2022/01/25 07:48:50;;;;;;;127.25;55.83;;;-3276.70;80.80;;;;;;5010416;28;20050;-93
2022/01/25 07:51:23;;;;;;;138.07;53.50;;;-3276.70;80.90;;;;;;5006865;28;20077;-93
2022/01/25 07:53:50;;;;;;;124.78;54.13;;;-3276.70;80.90;;;;;;5010223;28;20089;-93
2022/01/25 07:56:18;;;;;;;125.82;55.42;;;0.00;80.90;;;;;;5003497;28;20092;-92
2022/01/25 07:58:45;;;;;;;119.90;52.92;;;0.00;81.00;;;;;;4996737;28;20163;-91
2022/01/25 08:01:13;;;;;;;125.88;53.85;;;0.00;81.00;;;;;;4994749;28;20061;-92
2022/01/25 08:03:41;;;;;;;113.13;52.20;;;0.00;81.00;;;;;;4993828;28;20054;-93
2022/01/25 08:06:33;;;;;;;103.75;50.55;;;0.00;81.10;;;;;;4999849;28;20042;-93
2022/01/25 08:09:09;;;;;;;108.03;49.92;;;0.00;81.10;;;;;;5000518;28;20133;-92
2022/01/25 08:11:50;;;;;;;106.75;52.67;;;0.00;81.10;;;;;;4996421;28;20078;-93
2022/01/25 08:14:34;;;;;;;107.60;52.03;;;0.00;81.20;;;;;;5000371;28;20148;-93
2022/01/25 08:17:20;;;;;;;109.00;51.30;;;0.00;81.20;;;;;;4992014;28;20042;-93
2022/01/25 08:19:56;;;;;;;104.90;49.67;;;0.00;81.20;;;;;;5004594;28;20050;-95
2022/01/25 08:22:52;;;;;;;115.00;51.75;;;0.00;81.30;;;;;;4939960;29;20058;-92
2022/01/25 08:25:26;;;;;;;109.28;51.63;;;0.00;81.30;;;;;;4918790;29;20102;-92
2022/01/25 08:28:09;;;;;;;107.82;49.80;;;0.00;81.30;;;;;;4935307;29;20482;-93
2022/01/25 08:30:40;;;;;;;98.25;49.35;;;0.00;81.40;;;;;;4936212;29;20048;-92
2022/01/25 08:33:21;;;;;;;95.88;49.35;;;0.00;81.40;;;;;;4915377;29;20051;-93
2022/01/25 08:36:05;;;;;;;103.50;51.28;;;0.00;81.50;;;;;;4922964;29;20040;-93
2022/01/25 08:38:39;;;;;;;101.30;49.72;;;0.10;81.50;;;;;;4936293;28;20130;-93
2022/01/25 08:41:21;;;;;;;95.90;48.50;;;0.10;81.60;;;;;;4940173;29;20095;-93
2022/01/25 08:43:58;;;;;;;104.53;50.38;;;0.10;81.60;;;;;;4906997;29;20130;-92
2022/01/25 08:46:39;;;;;;;90.25;47.33;;;0.10;81.60;;;;;;4918485;29;20051;-93
2022/01/25 08:49:21;;;;;;;89.32;46.72;;;0.10;81.70;;;;;;4933803;28;20063;-93
2022/01/25 08:51:48;;;;;;;87.15;46.78;;;0.10;81.70;;;;;;4936159;29;20624;-93
2022/01/25 08:54:29;;;;;;;88.95;47.25;;;0.10;81.70;;;;;;4862083;29;20063;-92
2022/01/25 08:57:16;;;;;;;84.88;45.53;;;0.10;81.80;;;;;;4920479;28;20047;-92
2022/01/25 09:00:13;;;;;;;88.10;46.58;;;0.10;81.80;;;;;;4938579;29;20062;-92
2022/01/25 09:02:41;;;;;;;81.32;46.13;;;0.20;81.80;;;;;;4958438;28;20057;-92
2022/01/25 09:05:09;;;;;;;85.57;45.53;;;0.10;81.90;;;;;;4956343;28;20082;-92
2022/01/25 09:07:36;;;;;;;98.53;49.80;;;0.20;81.90;;;;;;4954762;28;20074;-91
2022/01/25 09:10:04;;;;;;;86.32;47.13;;;0.20;82.00;;;;;;4939476;29;20058;-92
2022/01/25 09:12:32;;;;;;;82.00;45.97;;;0.20;82.00;;;;;;4941116;29;20061;-91
2022/01/25 09:14:59;;;;;;;77.25;45.45;;;0.20;82.10;;;;;;4955673;28;20134;-93
2022/01/25 09:17:26;;;;;;;81.43;47.40;;;0.20;82.10;;;;;;4939896;29;20051;-93
2022/01/25 09:19:53;;;;;;;77.20;44.67;;;0.20;82.10;;;;;;4940664;28;20047;-89
2022/01/25 09:22:24;;;;;;;78.97;45.97;;;0.20;82.10;;;;;;4950312;29;20073;-94
2022/01/25 09:25:13;;;;;;;79.80;45.03;;;0.20;82.10;;;;;;4953469;28;20062;-93
2022/01/25 09:27:45;;;;;;;79.72;44.72;;;0.20;82.20;;;;;;4955023;28;20054;-92
2022/01/25 09:30:12;;;;;;;74.75;45.67;;;0.20;82.20;;;;;;4955065;28;20167;-91
2022/01/25 09:32:39;;;;;;;73.35;43.70;;;0.20;82.20;;;;;;4990120;28;20046;-90
2022/01/25 09:35:07;;;;;;;73.63;44.60;;;0.20;82.20;;;;;;4994587;28;20060;-90
2022/01/25 09:37:34;;;;;;;71.40;42.67;;;0.20;82.30;;;;;;4993367;28;20431;-90
2022/01/25 09:40:02;;;;;;;70.65;43.50;;;0.30;82.30;;;;;;4994683;28;20577;-90
2022/01/25 09:42:30;;;;;;;73.10;44.85;;;0.30;82.30;;;;;;4995072;28;20055;-91
2022/01/25 09:44:59;;;;;;;69.97;43.40;;;0.30;82.30;;;;;;4994107;28;20053;-91
2022/01/25 09:47:26;;;;;;;70.80;43.65;;;0.30;82.40;;;;;;4995051;28;20116;-90
2022/01/25 09:49:53;;;;;;;70.47;43.25;;;0.30;82.40;;;;;;4994816;28;20047;-89
2022/01/25 09:52:22;;;;;;;69.72;43.00;;;0.30;82.40;;;;;;4993022;28;20065;-90
2022/01/25 09:54:58;;;;;;;72.65;43.22;;;0.30;82.40;;;;;;4995072;28;20068;-91
2022/01/25 09:57:25;;;;;;;75.65;43.95;;;0.30;82.40;;;;;;4993310;28;20050;-90
2022/01/25 09:59:56;;;;;;;68.03;42.38;;;0.30;82.40;;;;;;4996800;28;20161;-90
2022/01/25 10:02:51;;;;;;;77.93;43.72;;;0.30;82.50;;;;;;4996317;28;20061;-90
2022/01/25 10:05:30;;;;;;;72.13;43.38;;;0.30;82.50;;;;;;4981513;28;20050;-89
2022/01/25 10:08:01;;;;;;;78.38;43.70;;;0.40;82.60;;;;;;4978874;28;20056;-90
2022/01/25 10:10:30;;;;;;;71.50;43.33;;;0.30;82.60;;;;;;4989875;28;20054;-89
2022/01/25 10:13:11;;;;;;;73.22;45.58;;;0.40;82.60;;;;;;4991587;28;20055;-90
2022/01/25 10:15:39;;;;;;;66.88;41.97;;;0.40;82.70;;;;;;4994327;28;20077;-90
2022/01/25 10:18:22;;;;;;;75.32;43.33;;;0.40;82.80;;;;;;4993940;28;20408;-90
2022/01/25 10:20:51;;;;;;;66.63;42.25;;;0.40;82.80;;;;;;4993932;28;20054;-90
2022/01/25 10:23:22;;;;;;;72.47;44.15;;;0.40;82.80;;;;;;4993082;28;20066;-89
2022/01/25 10:25:50;;;;;;;76.15;45.15;;;0.40;82.90;;;;;;4993933;28;20050;-90
2022/01/25 10:28:27;;;;;;;72.40;45.45;;;0.40;82.90;;;;;;4992370;28;20054;-89
2022/01/25 10:31:01;;;;;;;74.00;45.40;;;0.40;82.90;;;;;;4994675;28;20054;-90
2022/01/25 10:33:38;;;;;;;79.38;47.05;;;0.40;82.90;;;;;;4992830;28;20427;-90
2022/01/25 10:36:26;;;;;;;77.60;47.25;;;0.40;83.00;;;;;;4994270;28;20046;-90
2022/01/25 10:38:55;;;;;;;70.60;43.67;;;0.40;83.00;;;;;;4994775;28;20058;-92
2022/01/25 10:41:26;;;;;;;80.88;47.05;;;0.40;83.00;;;;;;4992119;28;20419;-91
2022/01/25 10:43:56;;;;;;;72.03;43.97;;;0.40;83.00;;;;;;4995106;28;20522;-92
2022/01/25 10:46:31;;;;;;;66.63;43.38;;;0.50;83.00;;;;;;4993195;28;20050;-91
2022/01/25 10:49:07;;;;;;;83.75;46.92;;;0.50;83.00;;;;;;4993875;28;20062;-90
2022/01/25 10:51:37;;;;;;;71.68;43.40;;;0.50;83.00;;;;;;4993219;28;20054;-92
2022/01/25 10:54:20;;;;;;;74.20;47.50;;;0.50;83.10;;;;;;4995270;28;20096;-91
2022/01/25 10:56:59;;;;;;;83.30;48.50;;;0.50;83.10;;;;;;4994377;28;20054;-91
2022/01/25 10:59:29;;;;;;;82.13;47.22;;;0.50;83.10;;;;;;4998135;28;20064;-92
2022/01/25 11:02:06;;;;;;;92.05;46.75;;;0.50;83.10;;;;;;4993097;28;20541;-90
2022/01/25 11:04:39;;;;;;;76.53;44.97;;;0.50;83.10;;;;;;4989872;28;20149;-91
2022/01/25 11:07:11;;;;;;;87.53;45.90;;;0.50;83.20;;;;;;4992120;28;20053;-90
2022/01/25 11:09:44;;;;;;;70.50;44.47;;;0.50;83.20;;;;;;4993124;28;20065;-90
2022/01/25 11:12:16;;;;;;;83.45;46.35;;;0.50;83.30;;;;;;4992625;28;20073;-90
2022/01/25 11:14:51;;;;;;;83.53;46.90;;;0.50;83.30;;;;;;4992901;28;20049;-90
2022/01/25 11:17:20;;;;;;;75.85;45.28;;;0.50;83.30;;;;;;4995023;28;20066;-90
2022/01/25 11:19:47;;;;;;;75.80;45.42;;;0.50;83.40;;;;;;4993046;28;20047;-90
2022/01/25 11:22:19;;;;;;;66.03;43.78;;;0.60;83.40;;;;;;4992938;28;20479;-90
2022/01/25 11:24:55;;;;;;;76.05;46.38;;;0.50;83.40;;;;;;4992412;28;20054;-89
2022/01/25 11:27:24;;;;;;;75.15;44.22;;;0.60;83.50;;;;;;4992641;28;20046;-89
2022/01/25 11:29:53;;;;;;;77.70;47.22;;;0.60;83.50;;;;;;4993763;28;20066;-91
2022/01/25 11:32:25;;;;;;;74.85;46.85;;;0.60;83.60;;;;;;4992907;28;20046;-89
2022/01/25 11:34:53;;;;;;;73.28;44.28;;;0.60;83.60;;;;;;4993362;28;20057;-91
2022/01/25 11:37:40;;;;;;;71.00;44.95;;;0.60;83.60;;;;;;4993121;28;20053;-89
2022/01/25 11:40:53;;;;;;;65.40;42.80;;;0.60;83.60;;;;;;4995588;28;20515;-91
2022/01/25 11:43:20;;;;;;;75.43;45.03;;;0.60;83.70;;;;;;4936099;29;20551;-90
2022/01/25 11:45:49;;;;;;;68.40;43.25;;;0.70;83.60;;;;;;4938039;28;20063;-92
2022/01/25 11:48:43;;;;;;;73.22;43.78;;;0.70;83.70;;;;;;4937114;29;20513;-90
2022/01/25 11:51:16;;;;;;;67.10;43.40;;;0.70;83.70;;;;;;4937484;29;20048;-90
2022/01/25 11:53:46;;;;;;;68.70;43.80;;;0.70;83.70;;;;;;4937648;29;20063;-90
2022/01/25 11:56:14;;;;;;;67.95;43.00;;;0.70;83.70;;;;;;4937517;29;20460;-89
2022/01/25 11:58:42;;;;;;;62.78;41.30;;;0.70;83.70;;;;;;4936691;29;20059;-90
2022/01/25 12:01:18;;;;;;;64.32;41.38;;;0.70;83.70;;;;;;4936031;29;20066;-90
2022/01/25 12:04:03;;;;;;;64.68;42.00;;;0.70;83.70;;;;;;4936540;29;20130;-90
2022/01/25 12:06:36;;;;;;;;;;;0.80;83.70;;;;;;4921452;29;20087;-90
2022/01/25 12:09:51;;;;;;;62.97;41.30;;;0.80;83.70;;;;;;4936382;29;19938;-89
2022/01/25 12:12:18;;;;;;;90.60;46.70;;;0.80;83.70;;;;;;4877359;29;20064;-90
2022/01/25 12:14:49;;;;;;;64.68;42.83;;;0.80;83.80;;;;;;4877566;29;20051;-91
2022/01/25 12:17:18;;;;;;;65.63;43.40;;;0.80;83.80;;;;;;4876061;29;20053;-89
2022/01/25 12:19:50;;;;;;;62.88;41.15;;;0.80;83.80;;;;;;4924299;29;20155;-90
2022/01/25 12:22:27;;;;;;;68.30;43.38;;;0.90;83.90;;;;;;4938945;29;20063;-89
2022/01/25 12:25:06;;;;;;;68.55;44.38;;;0.90;83.90;;;;;;4953839;29;20428;-89
2022/01/25 12:27:41;;;;;;;67.22;43.97;;;0.90;83.90;;;;;;4938363;29;20059;-89
2022/01/25 12:30:17;;;;;;;67.20;43.30;;;0.90;84.00;;;;;;4947971;29;20541;-90
2022/01/25 12:32:55;;;;;;;65.97;43.63;;;0.90;84.00;;;;;;4954107;29;20134;-90
2022/01/25 12:35:42;;;;;;;67.72;44.72;;;0.90;83.90;;;;;;4953960;29;20134;-90
2022/01/25 12:38:19;;;;;;;66.18;43.22;;;0.90;83.90;;;;;;4924299;29;20076;-90
2022/01/25 12:41:20;;;;;;;62.63;43.35;;;0.90;83.90;;;;;;4953960;29;20484;-90
2022/01/25 12:43:54;;;;;;;61.63;42.42;;;0.90;83.90;;;;;;4950450;29;20059;-89
2022/01/25 12:46:24;;;;;;;65.60;43.20;;;0.90;83.90;;;;;;4938336;29;20171;-89
2022/01/25 12:48:53;;;;;;;64.50;42.35;;;0.90;83.90;;;;;;4969146;28;20054;-90
2022/01/25 12:51:28;;;;;;;63.22;41.97;;;0.90;84.00;;;;;;4995506;28;20081;-89
2022/01/25 12:53:57;;;;;;;65.07;44.83;;;0.90;84.00;;;;;;4994406;28;20068;-89
2022/01/25 12:56:28;;;;;;;72.78;44.20;;;0.90;84.00;;;;;;4994860;28;20054;-90
2022/01/25 12:59:00;;;;;;;69.10;43.25;;;1.00;84.00;;;;;;4995540;28;20049;-89
2022/01/25 13:01:27;;;;;;;68.88;42.97;;;0.90;84.00;;;;;;4990502;28;20046;-88
2022/01/25 13:04:00;;;;;;;63.67;43.55;;;1.00;84.00;;;;;;4995903;28;20088;-90
2022/01/25 13:06:40;;;;;;;61.75;42.00;;;1.00;84.00;;;;;;4995756;28;20046;-90
2022/01/25 13:09:14;;;;;;;63.88;42.78;;;1.00;84.00;;;;;;4993413;28;20046;-90
2022/01/25 13:17:14;;;;;;;64.72;42.80;;;1.00;84.00;;;;;;4980951;28;20427;-89
2022/01/25 13:19:46;;;;;;;69.03;45.00;;;1.00;84.00;;;;;;4995810;28;20084;-89
2022/01/25 13:22:24;;;;;;;66.78;43.22;;;1.00;84.00;;;;;;4993052;28;20100;-90
2022/01/25 13:25:11;;;;;;;71.10;44.40;;;1.00;84.00;;;;;;4994024;28;20435;-90
2022/01/25 13:28:22;;;;;;;73.97;46.42;;;1.00;84.00;;;;;;4993917;28;20046;-89
2022/01/25 13:30:41;;;;;;;69.18;44.95;;;1.00;84.00;;;;;;4991942;28;20050;-89
2022/01/25 13:33:14;;;;;;;73.72;46.03;;;1.00;84.00;;;;;;4995284;28;20046;-89
2022/01/25 13:35:47;;;;;;;72.50;45.88;;;1.00;84.00;;;;;;4995533;28;20513;-89
2022/01/25 13:38:27;;;;;;;69.55;46.05;;;1.00;84.00;;;;;;4994811;28;20479;-89
2022/01/25 13:46:34;;;;;;;73.78;46.17;;;1.00;84.10;;;;;;4989577;28;20082;-90
2022/01/25 13:49:20;;;;;;;74.57;47.85;;;1.00;84.10;;;;;;4995923;28;20105;-89
2022/01/25 13:51:49;;;;;;;85.07;49.40;;;1.10;84.10;;;;;;4994744;28;20060;-89
2022/01/25 13:54:31;;;;;;;78.37;48.23;;;1.10;84.10;;;;;;4993505;28;20124;-89
2022/01/25 13:57:09;;;;;;;75.20;47.45;;;1.10;84.10;;;;;;4994399;28;20798;-89
2022/01/25 13:59:37;;;;;;;74.93;46.85;;;1.10;84.10;;;;;;4994572;28;20046;-89
2022/01/25 14:02:05;;;;;;;79.32;48.53;;;1.10;84.10;;;;;;4992066;28;20481;-89
2022/01/25 14:04:37;;;;;;;73.80;46.90;;;1.10;84.10;;;;;;4993537;28;20080;-89
2022/01/25 14:07:05;;;;;;;78.93;47.85;;;1.10;84.20;;;;;;4994164;28;20516;-89
2022/01/25 14:09:38;;;;;;;77.78;48.08;;;1.10;84.20;;;;;;4994396;28;20062;-91
2022/01/25 14:23:23;;;;;;;77.43;48.63;;;1.20;84.20;;;;;;4982038;28;20058;-88
2022/01/25 14:26:00;;;;;;;85.65;50.67;;;1.10;84.20;;;;;;4994368;28;20053;-89
2022/01/25 14:28:28;;;;;;;86.45;50.38;;;1.20;84.20;;;;;;5004485;28;20050;-89
2022/01/25 14:30:57;;;;;;;81.85;49.15;;;1.10;84.20;;;;;;4995184;28;20061;-89
2022/01/25 14:33:34;;;;;;;82.60;49.55;;;1.20;84.20;;;;;;4995328;28;20431;-89
2022/01/25 14:36:05;;;;;;;87.47;49.63;;;1.20;84.30;;;;;;4993826;28;20506;-89
2022/01/25 14:38:36;;;;;;;91.15;52.05;;;1.20;84.30;;;;;;4993757;28;20166;-89
2022/01/25 14:41:19;;;;;;;88.25;53.03;;;1.20;84.20;;;;;;4992756;28;20064;-89
2022/01/25 14:43:49;;;;;;;90.47;53.20;;;1.20;84.30;;;;;;4993289;28;20054;-90
2022/01/25 14:46:24;;;;;;;87.40;51.80;;;1.20;84.30;;;;;;4992539;28;20105;-89
2022/01/25 14:48:55;;;;;;;;;;;1.20;84.30;;;;;;4994380;28;20058;-90
2022/01/25 14:51:43;;;;;;;91.00;51.80;;;1.20;84.30;;;;;;4993701;28;19922;-90
2022/01/25 14:54:17;;;;;;;91.70;52.90;;;1.20;84.30;;;;;;4993546;28;20050;-90
2022/01/25 14:56:51;;;;;;;;;;;1.20;84.30;;;;;;4992834;28;20058;-90
2022/01/25 14:59:29;;;;;;;99.55;53.72;;;1.20;84.30;;;;;;4993684;28;19940;-89
2022/01/25 15:02:25;;;;;;;97.22;53.30;;;1.20;84.30;;;;;;4992297;28;20042;-89
2022/01/25 15:04:55;;;;;;;98.07;53.38;;;1.20;84.40;;;;;;4976333;28;20053;-90
2022/01/25 15:07:26;;;;;;;96.25;54.10;;;1.20;84.40;;;;;;4991119;28;20054;-90
2022/01/25 15:10:00;;;;;;;99.55;54.13;;;1.20;84.40;;;;;;4991721;28;20427;-90
2022/01/25 15:12:40;;;;;;;100.32;54.60;;;1.20;84.40;;;;;;4994974;28;20570;-90
2022/01/25 15:17:36;;;;;;;91.75;52.72;;;1.20;84.40;;;;;;5000134;28;20048;-89
2022/01/25 15:20:08;;;;;;;95.43;53.38;;;1.20;84.40;;;;;;4999028;28;20045;-89
2022/01/25 15:22:36;;;;;;;100.78;53.53;;;1.20;84.40;;;;;;4998948;28;20542;-89
2022/01/25 15:25:05;;;;;;;90.63;53.45;;;1.20;84.40;;;;;;4998457;28;20064;-91
2022/01/25 15:27:32;;;;;;;101.40;54.40;;;1.20;84.40;;;;;;4999119;28;20069;-88
2022/01/25 15:30:03;;;;;;;105.95;55.17;;;1.20;84.40;;;;;;4999390;28;20056;-90
2022/01/25 15:32:34;;;;;;;104.72;55.83;;;1.20;84.40;;;;;;4999123;28;20043;-90
2022/01/25 15:35:01;;;;;;;102.22;52.08;;;1.20;84.40;;;;;;5000427;28;20046;-89
2022/01/25 15:37:28;;;;;;;98.55;53.15;;;1.20;84.40;;;;;;4998588;28;20058;-90
2022/01/25 15:39:55;;;;;;;97.28;52.28;;;1.20;84.40;;;;;;5001500;28;20080;-89
2022/01/25 15:42:25;;;;;;;108.68;53.35;;;1.20;84.40;;;;;;4998929;28;20125;-90
2022/01/25 15:44:54;;;;;;;104.75;52.67;;;1.20;84.40;;;;;;5004468;28;20054;-88
2022/01/25 15:47:21;;;;;;;101.32;54.17;;;1.20;84.40;;;;;;5000315;28;20061;-91